Time;durP1;ratioP1;P1;durP2;ratioP2;P2;SDS_P1;SDS_P2;PMS_P1;PMS_P2;Temp;Humidity;BMP_temperature;BMP_pressure;BME280_temperature;BME280_humidity;BME280_pressure;Samples;Min_cycle;Max_cycle;Signal;HPM_P1;HPM_P2
2021/01/23 00:01:28;;;;;;;7.95;3.00;;;26.10;71.30;;;;;;6242842;23;20017;-68
2021/01/23 00:03:55;;;;;;;8.52;3.03;;;26.10;71.40;;;;;;6240649;22;20444;-69
2021/01/23 00:06:21;;;;;;;9.00;5.47;;;26.10;71.60;;;;;;6243363;23;20004;-69
2021/01/23 00:08:48;;;;;;;10.88;2.92;;;26.00;71.60;;;;;;6242260;23;20316;-70
2021/01/23 00:11:14;;;;;;;14.95;4.30;;;26.10;71.50;;;;;;6242683;23;20081;-76
2021/01/23 00:13:41;;;;;;;7.40;2.92;;;26.10;71.60;;;;;;6243033;23;20408;-69
2021/01/23 00:16:07;;;;;;;12.75;3.83;;;26.10;71.70;;;;;;6241217;23;20000;-69
2021/01/23 00:18:34;;;;;;;8.13;3.33;;;26.00;71.70;;;;;;6242866;23;20003;-69
2021/01/23 00:21:00;;;;;;;8.13;3.33;;;26.10;71.80;;;;;;6241182;23;20000;-70
2021/01/23 00:23:27;;;;;;;10.13;3.85;;;26.10;71.80;;;;;;6243253;23;20007;-69
2021/01/23 00:25:53;;;;;;;7.57;3.13;;;26.10;71.90;;;;;;6241614;23;20054;-70
2021/01/23 00:28:19;;;;;;;6.63;2.72;;;26.00;71.80;;;;;;6242448;23;20013;-69
2021/01/23 00:30:46;;;;;;;10.77;3.33;;;26.00;71.80;;;;;;6242566;23;20027;-69
2021/01/23 00:33:13;;;;;;;9.80;3.60;;;26.00;72.00;;;;;;6241559;23;20004;-69
2021/01/23 00:35:39;;;;;;;11.85;3.72;;;26.00;71.90;;;;;;6243285;23;20035;-69
2021/01/23 00:38:06;;;;;;;8.05;3.28;;;26.00;72.00;;;;;;6241473;23;20439;-70
2021/01/23 00:40:32;;;;;;;6.20;2.95;;;26.10;72.00;;;;;;6243182;23;20000;-69
2021/01/23 00:42:59;;;;;;;13.88;3.95;;;26.00;71.80;;;;;;6241217;23;20000;-69
2021/01/23 00:45:25;;;;;;;10.55;3.10;;;26.00;71.80;;;;;;6242298;23;20000;-69
2021/01/23 00:47:52;;;;;;;8.23;3.47;;;26.00;71.90;;;;;;6242182;23;20027;-68
2021/01/23 00:50:18;;;;;;;10.38;3.88;;;26.00;71.80;;;;;;6242010;23;20050;-69
2021/01/23 00:52:45;;;;;;;8.10;3.28;;;26.00;71.80;;;;;;6242536;23;20000;-68
2021/01/23 00:55:13;;;;;;;11.07;3.45;;;26.00;71.80;;;;;;6241264;23;20000;-69
2021/01/23 00:57:39;;;;;;;7.15;2.85;;;26.00;71.80;;;;;;6241707;22;20643;-70
2021/01/23 01:00:46;;;;;;;15.57;4.00;;;26.00;71.80;;;;;;6236970;23;20016;-72
2021/01/23 01:03:52;;;;;;;8.18;3.75;;;26.00;71.80;;;;;;6241271;23;20001;-70
2021/01/23 01:06:18;;;;;;;13.18;4.25;;;26.00;71.60;;;;;;6242502;23;20459;-69
2021/01/23 01:08:45;;;;;;;14.98;5.05;;;25.90;70.60;;;;;;6240897;23;20053;-70
2021/01/23 01:11:11;;;;;;;9.40;3.58;;;25.90;69.70;;;;;;6241266;23;20000;-69
2021/01/23 01:13:38;;;;;;;13.52;3.97;;;25.90;68.90;;;;;;6241331;23;20328;-68
2021/01/23 01:16:05;;;;;;;13.13;3.67;;;25.90;68.50;;;;;;6239296;23;20332;-68
2021/01/23 01:18:31;;;;;;;10.48;3.50;;;25.90;68.10;;;;;;6241437;23;20058;-68
2021/01/23 01:20:58;;;;;;;12.88;4.25;;;25.90;67.50;;;;;;6240924;23;20408;-69
2021/01/23 01:23:24;;;;;;;12.23;3.47;;;25.80;67.10;;;;;;6242261;23;20412;-69
2021/01/23 01:25:51;;;;;;;10.45;3.45;;;25.80;66.80;;;;;;6238919;22;20000;-69
2021/01/23 01:28:18;;;;;;;11.23;3.95;;;25.80;66.90;;;;;;6240549;23;20038;-69
2021/01/23 01:30:44;;;;;;;7.35;3.25;;;25.70;67.10;;;;;;6241616;23;20080;-69
2021/01/23 01:33:10;;;;;;;9.13;3.47;;;25.80;68.40;;;;;;6241802;23;20008;-68
2021/01/23 01:35:37;;;;;;;8.63;3.13;;;25.80;68.50;;;;;;6242812;23;19996;-68
2021/01/23 01:38:04;;;;;;;7.85;2.80;;;25.70;68.90;;;;;;6241492;23;20103;-68
2021/01/23 01:40:30;;;;;;;6.38;3.70;;;25.80;69.20;;;;;;6241935;23;20007;-68
2021/01/23 01:42:57;;;;;;;11.80;3.20;;;25.80;69.50;;;;;;6240660;23;20015;-69
2021/01/23 01:45:24;;;;;;;15.88;3.95;;;25.80;69.60;;;;;;6242159;23;20069;-68
2021/01/23 01:48:30;;;;;;;7.18;3.35;;;25.80;70.00;;;;;;6240983;23;20012;-68
2021/01/23 01:51:36;;;;;;;9.55;3.40;;;25.80;70.20;;;;;;6239494;23;20035;-69
2021/01/23 01:54:22;;;;;;;;;;;25.80;70.50;;;;;;6242312;23;20004;-73
2021/01/23 01:57:28;;;;;;;9.13;5.13;;;25.80;70.80;;;;;;6240718;23;19899;-69
2021/01/23 02:00:14;;;;;;;;;;;25.70;70.90;;;;;;6241356;23;20016;-69
2021/01/23 02:03:03;;;;;;;8.30;5.72;;;25.80;71.10;;;;;;6242176;23;19903;-69
2021/01/23 02:05:42;;;;;;;6.65;4.57;;;25.80;71.30;;;;;;6240754;23;20011;-69
2021/01/23 02:09:06;;;;;;;9.88;5.63;;;25.80;71.40;;;;;;6241620;23;20295;-69
2021/01/23 02:12:12;;;;;;;12.60;7.13;;;25.80;71.50;;;;;;6241277;23;20004;-68
2021/01/23 02:14:47;;;;;;;;;;;25.70;71.50;;;;;;6242059;23;20036;-68
2021/01/23 02:17:53;;;;;;;9.52;5.90;;;25.70;71.60;;;;;;6240117;23;19899;-68
2021/01/23 02:20:45;;;;;;;;;;;25.80;71.70;;;;;;6242289;23;20008;-70
2021/01/23 02:23:58;;;;;;;12.43;5.55;;;25.70;71.60;;;;;;6241351;23;19906;-70
2021/01/23 02:27:06;;;;;;;8.20;5.13;;;25.70;71.60;;;;;;6240414;23;20359;-69
2021/01/23 02:29:53;;;;;;;8.65;4.07;;;25.70;71.60;;;;;;6241289;23;19996;-70
2021/01/23 02:32:22;;;;;;;4.50;3.30;;;25.70;71.60;;;;;;6241745;23;20010;-69
2021/01/23 02:34:50;;;;;;;11.50;4.30;;;25.70;71.60;;;;;;6239775;23;20000;-68
2021/01/23 02:37:18;;;;;;;7.03;3.65;;;25.70;71.60;;;;;;6241727;23;20464;-69
2021/01/23 02:39:45;;;;;;;9.98;4.18;;;25.70;71.60;;;;;;6240060;23;19996;-69
2021/01/23 02:42:11;;;;;;;5.85;3.22;;;25.70;71.50;;;;;;6240353;22;20368;-70
2021/01/23 02:44:38;;;;;;;9.90;3.47;;;25.70;71.50;;;;;;6241831;23;20003;-69
2021/01/23 02:47:04;;;;;;;5.72;3.40;;;25.70;71.40;;;;;;6240682;23;20035;-69
2021/01/23 02:49:31;;;;;;;5.03;3.28;;;25.70;71.40;;;;;;6241662;23;19996;-70
2021/01/23 02:52:42;;;;;;;4.90;2.88;;;25.60;71.40;;;;;;6240271;23;20004;-70
2021/01/23 02:55:15;;;;;;;5.35;3.58;;;25.60;71.40;;;;;;6177498;23;20019;-69
2021/01/23 02:57:44;;;;;;;7.32;2.75;;;25.60;71.50;;;;;;6230727;23;20000;-69
2021/01/23 03:00:11;;;;;;;6.15;2.35;;;25.60;71.50;;;;;;6240404;23;20372;-69
2021/01/23 03:02:44;;;;;;;3.47;2.10;;;25.60;71.50;;;;;;6241243;23;20000;-69
2021/01/23 03:05:12;;;;;;;2.20;1.92;;;25.60;71.50;;;;;;6240130;23;19996;-69
2021/01/23 03:07:39;;;;;;;3.78;1.83;;;25.60;71.50;;;;;;6240517;23;20387;-70
2021/01/23 03:10:07;;;;;;;3.75;1.70;;;25.60;71.60;;;;;;6240378;23;20004;-69
2021/01/23 03:12:34;;;;;;;2.08;1.88;;;25.60;71.70;;;;;;6241153;23;20104;-69
2021/01/23 03:15:01;;;;;;;2.78;1.88;;;25.60;71.60;;;;;;6240852;23;20031;-69
2021/01/23 03:17:28;;;;;;;2.88;1.70;;;25.50;71.40;;;;;;6240059;23;20035;-69
2021/01/23 03:19:54;;;;;;;4.05;1.85;;;25.60;71.50;;;;;;6241065;23;20023;-69
2021/01/23 03:22:21;;;;;;;8.45;2.45;;;25.50;71.40;;;;;;6239514;23;20000;-70
2021/01/23 03:24:47;;;;;;;4.72;2.65;;;25.50;71.40;;;;;;6243054;23;20079;-69
2021/01/23 03:27:14;;;;;;;4.28;2.45;;;25.50;71.60;;;;;;6242865;23;20055;-69
2021/01/23 03:29:40;;;;;;;6.45;2.58;;;25.50;71.60;;;;;;6243239;23;20014;-69
2021/01/23 03:32:07;;;;;;;6.55;3.38;;;25.50;71.60;;;;;;6242503;23;20023;-69
2021/01/23 03:34:33;;;;;;;7.68;3.33;;;25.40;71.60;;;;;;6242316;23;20079;-68
2021/01/23 03:37:00;;;;;;;8.80;4.35;;;25.40;71.70;;;;;;6243423;23;20005;-76
2021/01/23 03:39:27;;;;;;;9.05;4.53;;;25.40;71.60;;;;;;6242106;23;20126;-68
2021/01/23 03:41:53;;;;;;;13.25;4.75;;;25.40;71.70;;;;;;6243427;23;19997;-69
2021/01/23 03:44:20;;;;;;;13.77;4.60;;;25.40;71.70;;;;;;6242451;23;20014;-70
2021/01/23 03:46:46;;;;;;;9.20;5.43;;;25.40;71.80;;;;;;6243139;23;20042;-70
2021/01/23 03:49:13;;;;;;;12.35;5.13;;;25.40;71.80;;;;;;6242988;23;20004;-69
2021/01/23 03:51:40;;;;;;;13.07;4.35;;;25.40;71.80;;;;;;6243259;23;20019;-68
2021/01/23 03:54:06;;;;;;;16.20;5.47;;;25.40;71.80;;;;;;6243502;23;20024;-69
2021/01/23 03:56:33;;;;;;;9.73;4.60;;;25.40;71.80;;;;;;6242129;23;20073;-69
2021/01/23 03:58:59;;;;;;;6.90;3.95;;;25.40;71.90;;;;;;6243267;23;20074;-69
2021/01/23 04:01:26;;;;;;;12.18;5.25;;;25.40;71.80;;;;;;6242144;23;20351;-69
2021/01/23 04:03:52;;;;;;;6.18;3.78;;;25.40;71.90;;;;;;6242804;23;20000;-69
2021/01/23 04:06:19;;;;;;;9.25;4.15;;;25.40;71.90;;;;;;6242180;23;20008;-69
2021/01/23 04:08:45;;;;;;;10.70;4.60;;;25.40;72.00;;;;;;6242364;23;20502;-69
2021/01/23 04:11:12;;;;;;;12.98;5.25;;;25.30;71.80;;;;;;6242467;23;20008;-69
2021/01/23 04:13:38;;;;;;;9.32;4.22;;;25.40;72.00;;;;;;6241917;23;20022;-69
2021/01/23 04:16:05;;;;;;;8.27;4.20;;;25.40;72.00;;;;;;6241794;22;20146;-71
2021/01/23 04:18:32;;;;;;;9.48;4.72;;;25.40;72.00;;;;;;6241225;23;20602;-69
2021/01/23 04:20:58;;;;;;;14.82;5.57;;;25.30;71.80;;;;;;6243217;23;20000;-69
2021/01/23 04:23:25;;;;;;;11.93;4.03;;;25.30;70.80;;;;;;6241255;23;20004;-69
2021/01/23 04:25:51;;;;;;;19.45;5.13;;;25.30;69.40;;;;;;6242388;23;20027;-70
2021/01/23 04:28:18;;;;;;;17.70;6.82;;;25.30;68.10;;;;;;6241795;23;20019;-75
2021/01/23 04:30:45;;;;;;;11.00;4.93;;;25.20;67.00;;;;;;6242472;23;20004;-69
2021/01/23 04:33:51;;;;;;;14.57;4.32;;;25.20;66.40;;;;;;6238849;23;20496;-75
2021/01/23 04:36:37;;;;;;;;;;;25.20;66.00;;;;;;6240942;23;20324;-74
2021/01/23 04:39:43;;;;;;;23.70;6.95;;;25.20;65.60;;;;;;6242296;23;19903;-68
2021/01/23 04:42:29;;;;;;;;;;;25.20;65.30;;;;;;6243669;23;20001;-67
2021/01/23 04:45:35;;;;;;;22.25;8.55;;;25.20;65.30;;;;;;6241174;23;19899;-69
2021/01/23 04:48:21;;;;;;;;;;;25.10;65.40;;;;;;6242509;23;20500;-68
2021/01/23 04:51:27;;;;;;;18.73;6.68;;;25.10;65.70;;;;;;6242801;23;19929;-68
2021/01/23 04:54:33;;;;;;;15.02;6.45;;;25.10;65.80;;;;;;6240527;23;20000;-68
2021/01/23 04:57:40;;;;;;;12.95;5.45;;;25.10;66.00;;;;;;6240725;23;20023;-71
2021/01/23 05:00:26;;;;;;;;;;;25.10;66.20;;;;;;6241881;23;20016;-68
2021/01/23 05:03:38;;;;;;;14.02;5.93;;;25.10;66.40;;;;;;6240132;23;19906;-69
2021/01/23 05:06:44;;;;;;;15.98;6.72;;;25.10;66.60;;;;;;6241622;23;20010;-68
2021/01/23 05:09:30;;;;;;;;;;;25.10;66.80;;;;;;6243097;23;20008;-68
2021/01/23 05:12:34;;;;;;;14.40;6.35;;;25.10;66.90;;;;;;6240378;23;19932;-68
2021/01/23 05:15:52;;;;;;;15.35;7.00;;;25.20;67.30;;;;;;6242057;22;20720;-69
2021/01/23 05:19:01;;;;;;;12.18;5.80;;;25.10;67.30;;;;;;6242082;23;20010;-69
2021/01/23 05:22:08;;;;;;;9.65;5.75;;;25.20;67.60;;;;;;6241167;23;20067;-69
2021/01/23 05:24:48;;;;;;;13.80;6.40;;;25.20;67.90;;;;;;6240859;23;20004;-68
2021/01/23 05:27:15;;;;;;;10.93;5.85;;;25.10;68.20;;;;;;6241636;23;20008;-69
2021/01/23 05:29:57;;;;;;;11.13;6.60;;;25.20;68.60;;;;;;6241177;23;20367;-68
2021/01/23 05:32:24;;;;;;;13.20;6.40;;;25.20;68.60;;;;;;6240375;23;20004;-69
2021/01/23 05:34:51;;;;;;;14.07;5.80;;;25.20;68.70;;;;;;6241823;23;20000;-69
2021/01/23 05:37:37;;;;;;;17.13;8.25;;;25.20;68.80;;;;;;6240324;23;20019;-69
2021/01/23 05:40:04;;;;;;;18.67;10.05;;;25.20;68.90;;;;;;6242236;23;20080;-69
2021/01/23 05:42:40;;;;;;;14.00;7.30;;;25.30;68.90;;;;;;6241596;23;20130;-69
2021/01/23 05:45:12;;;;;;;15.20;6.50;;;25.20;68.90;;;;;;6240601;23;20000;-69
2021/01/23 05:47:40;;;;;;;13.55;6.60;;;25.30;68.80;;;;;;6242159;23;20008;-72
2021/01/23 05:50:09;;;;;;;15.88;7.75;;;25.20;68.50;;;;;;6239320;23;20000;-69
2021/01/23 05:52:36;;;;;;;11.75;7.28;;;25.20;68.50;;;;;;6242169;23;20011;-68
2021/01/23 05:55:05;;;;;;;17.27;6.47;;;25.20;68.30;;;;;;6241365;23;19996;-69
2021/01/23 05:57:33;;;;;;;19.45;6.20;;;25.20;68.10;;;;;;6241097;23;20443;-68
2021/01/23 06:00:00;;;;;;;13.43;6.70;;;25.30;68.00;;;;;;6241697;23;20091;-73
2021/01/23 06:02:28;;;;;;;13.65;5.57;;;25.30;67.90;;;;;;6239365;22;20023;-77
2021/01/23 06:04:55;;;;;;;10.55;5.40;;;25.30;67.70;;;;;;6241080;23;19992;-70
2021/01/23 06:07:44;;;;;;;15.52;6.78;;;25.30;67.50;;;;;;6240769;23;20008;-74
2021/01/23 06:10:23;;;;;;;17.15;6.20;;;25.30;67.30;;;;;;6241141;23;20004;-68
2021/01/23 06:12:51;;;;;;;14.50;6.75;;;25.30;67.20;;;;;;6242173;23;20336;-70
2021/01/23 06:15:33;;;;;;;13.30;5.78;;;25.30;67.20;;;;;;6239648;23;20025;-68
2021/01/23 06:18:03;;;;;;;15.57;6.70;;;25.30;67.20;;;;;;6239605;23;20442;-68
2021/01/23 06:20:42;;;;;;;16.52;10.27;;;25.30;67.10;;;;;;6239563;23;20001;-70
2021/01/23 06:23:12;;;;;;;25.75;11.80;;;25.30;67.10;;;;;;6241008;23;20423;-68
2021/01/23 06:25:58;;;;;;;12.93;9.20;;;25.40;67.20;;;;;;6241028;23;20000;-68
2021/01/23 06:28:31;;;;;;;15.00;9.80;;;25.40;67.30;;;;;;6235372;23;20095;-74
2021/01/23 06:31:23;;;;;;;15.35;7.57;;;25.40;67.50;;;;;;6240609;23;20062;-67
2021/01/23 06:34:44;;;;;;;10.80;6.93;;;25.50;67.50;;;;;;6239830;23;20007;-70
2021/01/23 06:37:21;;;;;;;9.23;5.68;;;25.50;67.60;;;;;;6239020;23;20011;-68
2021/01/23 06:40:13;;;;;;;10.18;5.40;;;25.50;67.80;;;;;;6241555;23;20000;-66
2021/01/23 06:42:40;;;;;;;9.48;5.30;;;25.60;67.80;;;;;;6236594;23;20008;-66
2021/01/23 06:45:19;;;;;;;9.00;5.75;;;25.60;67.80;;;;;;6239955;23;19988;-67
2021/01/23 06:47:57;;;;;;;10.00;5.70;;;25.60;67.70;;;;;;6241826;23;20035;-67
2021/01/23 06:50:39;;;;;;;10.65;5.13;;;25.60;67.80;;;;;;6239919;23;20360;-67
2021/01/23 06:53:26;;;;;;;28.48;16.73;;;25.60;67.90;;;;;;6240848;23;20011;-69
2021/01/23 06:55:54;;;;;;;26.88;17.45;;;25.60;67.80;;;;;;6240655;23;20015;-69
2021/01/23 06:58:34;;;;;;;28.05;18.85;;;25.60;67.70;;;;;;6239548;23;19997;-67
2021/01/23 07:01:40;;;;;;;110.60;18.40;;;25.60;67.60;;;;;;6239548;23;20020;-70
2021/01/23 07:04:26;;;;;;;;;;;25.60;67.50;;;;;;6240044;23;20114;-70
2021/01/23 07:06:54;;;;;;;175.32;30.30;;;25.70;67.40;;;;;;6238220;23;20437;-81
2021/01/23 07:09:43;;;;;;;168.45;38.85;;;25.70;67.20;;;;;;6237818;23;20487;-71
2021/01/23 07:12:09;;;;;;;121.00;26.02;;;25.80;67.20;;;;;;6234960;23;20470;-68
2021/01/23 07:14:35;;;;;;;102.05;18.80;;;25.80;67.00;;;;;;6241270;23;20028;-68
2021/01/23 07:17:02;;;;;;;42.42;13.30;;;25.90;67.00;;;;;;6240235;23;20000;-67
2021/01/23 07:19:29;;;;;;;38.75;7.22;;;25.80;67.00;;;;;;6240412;23;20008;-66
2021/01/23 07:21:56;;;;;;;30.23;6.47;;;25.80;67.20;;;;;;6239679;23;20015;-66
2021/01/23 07:24:23;;;;;;;14.32;4.13;;;25.70;67.20;;;;;;6239762;23;19996;-66
2021/01/23 07:26:50;;;;;;;15.05;5.32;;;25.70;67.20;;;;;;6240695;23;20005;-66
2021/01/23 07:29:17;;;;;;;15.85;5.28;;;25.70;67.10;;;;;;6239737;23;20000;-66
2021/01/23 07:31:43;;;;;;;7.90;4.80;;;25.70;66.90;;;;;;6240890;23;20321;-66
2021/01/23 07:34:13;;;;;;;10.38;4.18;;;25.70;66.80;;;;;;6239798;23;20012;-66
2021/01/23 07:36:41;;;;;;;11.60;4.28;;;25.70;66.60;;;;;;6240490;23;20008;-66
2021/01/23 07:39:13;;;;;;;11.48;3.40;;;25.70;66.30;;;;;;6240378;23;19999;-70
2021/01/23 07:41:47;;;;;;;9.90;4.10;;;25.70;66.10;;;;;;6239186;23;20015;-67
2021/01/23 07:44:15;;;;;;;10.07;4.00;;;25.80;65.80;;;;;;6240771;23;20000;-78
2021/01/23 07:46:46;;;;;;;13.25;3.97;;;25.80;65.50;;;;;;6239673;23;20004;-70
2021/01/23 07:49:29;;;;;;;16.83;7.78;;;25.80;65.00;;;;;;6240611;23;20381;-73
2021/01/23 07:52:06;;;;;;;19.55;5.75;;;25.90;64.70;;;;;;6240421;23;20043;-73
2021/01/23 07:54:33;;;;;;;23.92;6.63;;;25.80;64.50;;;;;;6239700;23;20007;-76
2021/01/23 07:57:00;;;;;;;14.98;4.50;;;25.90;64.20;;;;;;6240599;23;20001;-70
2021/01/23 07:59:43;;;;;;;16.27;5.40;;;25.80;63.80;;;;;;6239079;23;20010;-74
2021/01/23 08:02:10;;;;;;;9.35;3.60;;;25.90;63.50;;;;;;6239816;22;20063;-74
2021/01/23 08:04:38;;;;;;;10.50;3.22;;;25.90;63.10;;;;;;6239912;23;20072;-72
2021/01/23 08:07:19;;;;;;;7.85;3.55;;;25.90;62.80;;;;;;6238959;23;20016;-73
2021/01/23 08:09:47;;;;;;;9.70;3.80;;;25.80;62.40;;;;;;6241062;23;20014;-69
2021/01/23 08:12:56;;;;;;;8.80;2.92;;;25.80;62.40;;;;;;6241025;23;20011;-73
2021/01/23 08:16:05;;;;;;;11.73;2.30;;;25.90;61.90;;;;;;6242423;23;20797;-68
2021/01/23 08:19:11;;;;;;;7.72;1.77;;;25.90;61.20;;;;;;6242048;23;20075;-69
2021/01/23 08:22:23;;;;;;;18.38;2.17;;;26.00;60.50;;;;;;6239415;23;20011;-78
2021/01/23 08:25:41;;;;;;;4.65;1.40;;;26.00;60.20;;;;;;6241469;23;20063;-68
2021/01/23 08:28:08;;;;;;;11.65;2.28;;;26.00;59.90;;;;;;6242157;23;20482;-67
2021/01/23 08:30:43;;;;;;;9.00;1.65;;;26.10;59.50;;;;;;6240280;23;20004;-69
2021/01/23 08:33:48;;;;;;;5.28;1.58;;;26.00;59.10;;;;;;6239119;23;20004;-73
2021/01/23 08:36:15;;;;;;;9.27;1.77;;;26.00;58.50;;;;;;6240460;23;20028;-75
2021/01/23 08:39:21;;;;;;;5.70;1.95;;;26.00;58.60;;;;;;6239744;23;20811;-68
2021/01/23 08:41:48;;;;;;;7.00;2.17;;;26.00;58.30;;;;;;6240392;23;20004;-67
2021/01/23 08:44:14;;;;;;;3.13;1.73;;;26.10;58.00;;;;;;6241787;23;20475;-68
2021/01/23 08:47:20;;;;;;;8.65;1.52;;;26.10;57.80;;;;;;6239965;23;20057;-69
2021/01/23 08:50:24;;;;;;;8.57;2.22;;;26.10;57.50;;;;;;6241716;23;20004;-68
2021/01/23 08:52:50;;;;;;;8.13;1.27;;;26.10;57.30;;;;;;6240736;23;20012;-68
2021/01/23 08:55:17;;;;;;;5.40;1.58;;;26.10;57.00;;;;;;6239458;23;19999;-70
2021/01/23 08:57:43;;;;;;;4.50;1.35;;;26.10;56.80;;;;;;6240757;23;20024;-74
2021/01/23 09:00:13;;;;;;;4.57;1.15;;;26.10;56.50;;;;;;6240058;23;20016;-74
2021/01/23 09:02:40;;;;;;;3.10;1.08;;;26.10;56.30;;;;;;6241960;22;19996;-71
2021/01/23 09:05:46;;;;;;;4.13;1.50;;;26.10;56.30;;;;;;6240927;23;20004;-76
2021/01/23 09:08:52;;;;;;;3.38;0.95;;;26.10;56.10;;;;;;6240680;23;20016;-70
2021/01/23 09:11:18;;;;;;;5.10;0.95;;;26.30;55.70;;;;;;6241378;23;20008;-67
2021/01/23 09:13:45;;;;;;;4.25;1.15;;;26.30;55.10;;;;;;6241182;23;20010;-67
2021/01/23 09:16:12;;;;;;;2.00;0.80;;;26.30;54.80;;;;;;6241130;23;20324;-67
2021/01/23 09:18:38;;;;;;;3.42;0.98;;;26.30;54.80;;;;;;6241693;23;20000;-74
2021/01/23 09:21:05;;;;;;;2.20;0.65;;;26.30;54.80;;;;;;6240188;23;20277;-69
2021/01/23 09:24:09;;;;;;;2.67;0.88;;;26.30;54.60;;;;;;6242612;23;20004;-66
2021/01/23 09:27:04;;;;;;;5.20;0.98;;;26.30;54.40;;;;;;6238971;23;20028;-67
2021/01/23 09:29:30;;;;;;;4.97;1.05;;;26.40;54.60;;;;;;6239050;23;20082;-66
2021/01/23 09:31:59;;;;;;;2.05;0.80;;;26.30;54.80;;;;;;6241838;23;20008;-69
2021/01/23 09:35:05;;;;;;;9.00;1.10;;;26.30;54.70;;;;;;6240252;23;20024;-68
2021/01/23 09:37:31;;;;;;;8.00;2.15;;;26.30;54.60;;;;;;6241842;22;20000;-67
2021/01/23 09:40:03;;;;;;;4.53;2.40;;;26.30;54.60;;;;;;6241042;23;20455;-68
2021/01/23 09:43:06;;;;;;;6.97;1.85;;;26.30;54.60;;;;;;6239468;23;20004;-70
2021/01/23 09:45:33;;;;;;;5.65;1.10;;;26.40;54.60;;;;;;6240250;23;20042;-69
2021/01/23 09:48:04;;;;;;;4.55;0.82;;;26.40;55.00;;;;;;6240625;23;20493;-68
2021/01/23 09:51:10;;;;;;;3.40;0.90;;;26.50;54.10;;;;;;6240152;23;20086;-68
2021/01/23 09:54:16;;;;;;;2.38;0.77;;;26.50;53.80;;;;;;6240811;23;20004;-70
2021/01/23 09:56:43;;;;;;;3.13;0.73;;;26.50;53.70;;;;;;6240040;23;20338;-76
2021/01/23 09:59:29;;;;;;;7.28;1.20;;;26.50;53.30;;;;;;6237991;23;20054;-75
2021/01/23 10:02:36;;;;;;;5.75;3.42;;;26.50;53.20;;;;;;6241654;22;20020;-77
2021/01/23 10:05:42;;;;;;;6.10;2.55;;;26.50;52.90;;;;;;6240737;22;20000;-73
2021/01/23 10:08:48;;;;;;;6.47;1.40;;;26.50;53.00;;;;;;6240991;23;20008;-69
2021/01/23 10:11:57;;;;;;;4.10;1.08;;;26.60;52.90;;;;;;6241623;23;20000;-75
2021/01/23 10:15:03;;;;;;;2.45;1.88;;;26.70;52.60;;;;;;6239410;23;20039;-69
2021/01/23 10:18:09;;;;;;;4.65;2.05;;;26.70;52.10;;;;;;6239162;23;20068;-69
2021/01/23 10:20:38;;;;;;;1.15;0.65;;;26.70;52.10;;;;;;6241537;23;20008;-73
2021/01/23 10:23:44;;;;;;;3.28;0.60;;;26.70;52.00;;;;;;6240040;23;19996;-68
2021/01/23 10:26:10;;;;;;;2.63;0.75;;;26.80;52.30;;;;;;6239351;23;20004;-69
2021/01/23 10:28:37;;;;;;;4.03;1.40;;;26.80;52.10;;;;;;6241648;23;20372;-69
2021/01/23 10:31:43;;;;;;;4.38;1.20;;;26.80;52.50;;;;;;6238935;23;20008;-68
2021/01/23 10:34:49;;;;;;;3.65;0.70;;;26.80;52.60;;;;;;6240583;23;20000;-67
2021/01/23 10:37:55;;;;;;;3.72;1.35;;;26.80;52.30;;;;;;6241045;23;19996;-69
2021/01/23 10:40:22;;;;;;;1.35;1.20;;;26.80;52.50;;;;;;6239037;23;20058;-69
2021/01/23 10:43:28;;;;;;;5.97;2.97;;;26.80;52.50;;;;;;6239562;23;20012;-67
2021/01/23 10:46:35;;;;;;;4.05;0.98;;;26.90;52.40;;;;;;6240309;23;20332;-68
2021/01/23 10:49:21;;;;;;;3.58;0.95;;;26.90;52.10;;;;;;6239888;22;20087;-68
2021/01/23 10:52:27;;;;;;;3.13;1.05;;;26.90;51.70;;;;;;6238357;23;20340;-70
2021/01/23 10:55:33;;;;;;;3.92;1.40;;;26.90;51.60;;;;;;6241768;23;20447;-68
2021/01/23 10:58:40;;;;;;;3.78;1.60;;;27.00;51.60;;;;;;6241089;23;20011;-71
2021/01/23 11:01:23;;;;;;;3.50;0.80;;;27.00;51.30;;;;;;6238602;23;20016;-71
2021/01/23 11:04:29;;;;;;;2.72;1.02;;;27.00;51.20;;;;;;6239760;23;20000;-68
2021/01/23 11:07:35;;;;;;;3.35;2.05;;;27.00;51.20;;;;;;6241707;23;20027;-72
2021/01/23 11:10:41;;;;;;;3.50;1.80;;;27.00;50.90;;;;;;6239796;23;20301;-69
2021/01/23 11:13:08;;;;;;;3.22;1.20;;;27.00;50.90;;;;;;6239124;23;20000;-68
2021/01/23 11:16:14;;;;;;;4.28;1.10;;;27.00;50.90;;;;;;6240209;22;20084;-69
2021/01/23 11:19:20;;;;;;;4.95;1.10;;;27.00;50.50;;;;;;6239748;23;20000;-68
2021/01/23 11:21:46;;;;;;;6.13;0.95;;;27.00;50.60;;;;;;6240469;23;19996;-68
2021/01/23 11:24:53;;;;;;;2.95;0.80;;;27.00;50.50;;;;;;6240445;23;20420;-70
2021/01/23 11:27:59;;;;;;;3.72;0.77;;;27.00;50.40;;;;;;6236783;23;20440;-75
2021/01/23 11:30:25;;;;;;;3.50;0.98;;;27.10;50.40;;;;;;6239662;22;20004;-69
2021/01/23 11:33:32;;;;;;;3.10;1.40;;;27.20;50.20;;;;;;6239780;23;20075;-69
2021/01/23 11:35:58;;;;;;;4.07;1.08;;;27.30;50.00;;;;;;6239164;23;20069;-71
2021/01/23 11:39:04;;;;;;;1.15;0.55;;;27.30;49.70;;;;;;6240705;23;20000;-68
2021/01/23 11:42:10;;;;;;;1.80;1.00;;;27.30;49.70;;;;;;6241113;23;20309;-70
2021/01/23 11:45:16;;;;;;;3.35;1.90;;;27.30;49.60;;;;;;6240693;23;20019;-67
2021/01/23 11:48:22;;;;;;;6.00;1.75;;;27.30;49.60;;;;;;6243118;23;20005;-67
2021/01/23 11:51:28;;;;;;;2.00;1.00;;;27.50;49.70;;;;;;6243102;23;20076;-73
2021/01/23 11:54:34;;;;;;;3.08;0.90;;;27.50;49.30;;;;;;6241125;23;19992;-67
2021/01/23 11:57:01;;;;;;;2.95;1.48;;;27.40;49.30;;;;;;6241327;23;20054;-67
2021/01/23 11:59:27;;;;;;;3.85;1.27;;;27.50;49.70;;;;;;6243016;23;20359;-67
2021/01/23 12:02:31;;;;;;;2.25;0.95;;;27.50;49.60;;;;;;6241930;23;19996;-67
2021/01/23 12:04:57;;;;;;;5.20;1.60;;;27.50;49.80;;;;;;6242785;22;20036;-67
2021/01/23 12:08:03;;;;;;;2.97;1.15;;;27.50;49.70;;;;;;6242021;23;20008;-67
2021/01/23 12:10:30;;;;;;;4.88;0.70;;;27.30;49.20;;;;;;6241244;23;20000;-67
2021/01/23 12:13:36;;;;;;;4.78;2.35;;;27.20;49.30;;;;;;6243396;23;20411;-70
2021/01/23 12:16:42;;;;;;;4.20;1.60;;;27.30;49.40;;;;;;6241936;23;20000;-68
2021/01/23 12:19:10;;;;;;;2.58;0.85;;;27.20;49.60;;;;;;6241033;22;20026;-70
2021/01/23 12:22:16;;;;;;;2.75;1.20;;;27.30;49.60;;;;;;6242220;23;20008;-68
2021/01/23 12:25:26;;;;;;;5.20;1.20;;;27.30;49.50;;;;;;6241823;23;20381;-70
2021/01/23 12:28:32;;;;;;;2.92;1.10;;;27.40;49.70;;;;;;6241227;23;20329;-73
2021/01/23 12:31:38;;;;;;;2.60;1.90;;;27.50;49.60;;;;;;6242309;23;20000;-68
2021/01/23 12:34:44;;;;;;;6.35;1.45;;;27.50;49.60;;;;;;6242802;23;20008;-69
2021/01/23 12:37:55;;;;;;;4.00;1.38;;;27.40;49.50;;;;;;6240842;23;20011;-68
2021/01/23 12:41:01;;;;;;;8.82;1.60;;;27.50;49.50;;;;;;6241431;23;20459;-68
2021/01/23 12:44:07;;;;;;;5.07;2.17;;;27.50;49.40;;;;;;6243123;23;20000;-67
2021/01/23 12:47:13;;;;;;;9.98;1.90;;;27.60;49.70;;;;;;6241806;23;20024;-68
2021/01/23 12:50:20;;;;;;;4.05;1.60;;;27.50;49.40;;;;;;6241222;23;20039;-67
2021/01/23 12:53:26;;;;;;;5.88;2.63;;;27.60;49.70;;;;;;6240357;23;20103;-69
2021/01/23 12:56:32;;;;;;;3.78;1.58;;;27.70;49.70;;;;;;6241998;23;20024;-69
2021/01/23 12:59:38;;;;;;;2.97;0.90;;;27.70;49.40;;;;;;6241092;23;20075;-73
2021/01/23 13:02:44;;;;;;;4.15;1.10;;;27.70;49.20;;;;;;6240614;23;20008;-69
2021/01/23 13:05:50;;;;;;;5.10;0.98;;;27.70;49.20;;;;;;6242127;23;20004;-68
2021/01/23 13:08:56;;;;;;;4.32;1.10;;;27.70;49.40;;;;;;6242468;23;20019;-68
2021/01/23 13:12:02;;;;;;;5.90;2.20;;;27.60;49.60;;;;;;6240970;23;20004;-69
2021/01/23 13:15:08;;;;;;;5.50;1.63;;;27.70;49.50;;;;;;6241138;23;20015;-67
2021/01/23 13:18:14;;;;;;;1.38;0.80;;;27.70;49.70;;;;;;6240402;23;20063;-71
2021/01/23 13:21:20;;;;;;;3.33;1.08;;;27.80;49.70;;;;;;6240370;23;20080;-71
2021/01/23 13:24:28;;;;;;;1.23;0.80;;;27.60;49.70;;;;;;6240253;23;20010;-70
2021/01/23 13:27:34;;;;;;;4.95;1.30;;;27.80;49.80;;;;;;6240262;23;20375;-74
2021/01/23 13:30:40;;;;;;;3.15;1.10;;;27.80;49.60;;;;;;6241626;23;20408;-74
2021/01/23 13:33:50;;;;;;;4.22;0.88;;;27.70;49.60;;;;;;6238204;23;20386;-73
2021/01/23 13:36:16;;;;;;;10.90;1.25;;;27.70;49.80;;;;;;6239619;23;20004;-69
2021/01/23 13:39:22;;;;;;;2.30;1.13;;;27.70;50.10;;;;;;6239989;23;20006;-68
2021/01/23 13:42:13;;;;;;;3.72;1.25;;;27.70;50.20;;;;;;6239754;22;20305;-69
2021/01/23 13:45:19;;;;;;;1.33;0.65;;;27.70;50.60;;;;;;6240177;23;20451;-68
2021/01/23 13:48:02;;;;;;;3.17;1.38;;;27.60;50.60;;;;;;6241944;23;20361;-68
2021/01/23 13:51:08;;;;;;;3.15;1.02;;;27.60;50.60;;;;;;6240481;23;20054;-68
2021/01/23 13:54:14;;;;;;;1.83;1.25;;;27.60;50.60;;;;;;6240506;23;20000;-68
2021/01/23 13:57:20;;;;;;;4.03;1.00;;;27.60;50.80;;;;;;6241492;23;20006;-70
2021/01/23 14:00:27;;;;;;;1.63;1.02;;;27.70;50.90;;;;;;6240784;23;20459;-68
2021/01/23 14:03:33;;;;;;;6.50;1.58;;;27.70;51.00;;;;;;6240025;23;20079;-68
2021/01/23 14:06:39;;;;;;;6.63;1.83;;;27.60;50.80;;;;;;6240105;23;20008;-69